sensor_id;sensor_type;location;lat;lon;timestamp;P1;durP1;ratioP1;P2;durP2;ratioP2
9374;SDS011;4727;51.202;6.344;2022-08-30T00:00:40;8.13;;;4.17;;
9374;SDS011;4727;51.202;6.344;2022-08-30T00:03:25;6.13;;;4.50;;
9374;SDS011;4727;51.202;6.344;2022-08-30T00:05:51;5.20;;;4.03;;
9374;SDS011;4727;51.202;6.344;2022-08-30T00:08:17;4.67;;;4.10;;
9374;SDS011;4727;51.202;6.344;2022-08-30T00:10:43;8.43;;;4.60;;
9374;SDS011;4727;51.202;6.344;2022-08-30T00:13:10;4.63;;;4.10;;
9374;SDS011;4727;51.202;6.344;2022-08-30T00:15:37;5.90;;;4.07;;
9374;SDS011;4727;51.202;6.344;2022-08-30T00:18:03;4.57;;;4.17;;
9374;SDS011;4727;51.202;6.344;2022-08-30T00:20:30;6.70;;;4.37;;
9374;SDS011;4727;51.202;6.344;2022-08-30T00:22:56;7.57;;;4.63;;
9374;SDS011;4727;51.202;6.344;2022-08-30T00:25:22;4.60;;;3.97;;
9374;SDS011;4727;51.202;6.344;2022-08-30T00:27:48;6.57;;;4.40;;
9374;SDS011;4727;51.202;6.344;2022-08-30T00:30:15;7.00;;;4.50;;
9374;SDS011;4727;51.202;6.344;2022-08-30T00:32:42;5.70;;;4.00;;
9374;SDS011;4727;51.202;6.344;2022-08-30T00:35:09;5.73;;;4.30;;
9374;SDS011;4727;51.202;6.344;2022-08-30T00:37:37;4.50;;;4.10;;
9374;SDS011;4727;51.202;6.344;2022-08-30T00:40:03;7.03;;;4.63;;
9374;SDS011;4727;51.202;6.344;2022-08-30T00:42:30;5.03;;;4.33;;
9374;SDS011;4727;51.202;6.344;2022-08-30T00:44:57;5.10;;;4.60;;
9374;SDS011;4727;51.202;6.344;2022-08-30T00:47:23;7.03;;;4.60;;
9374;SDS011;4727;51.202;6.344;2022-08-30T00:49:52;6.57;;;4.57;;
9374;SDS011;4727;51.202;6.344;2022-08-30T00:52:20;6.00;;;3.90;;
9374;SDS011;4727;51.202;6.344;2022-08-30T00:54:47;5.60;;;4.40;;
9374;SDS011;4727;51.202;6.344;2022-08-30T00:57:15;5.13;;;4.03;;
9374;SDS011;4727;51.202;6.344;2022-08-30T00:59:42;5.77;;;4.50;;
9374;SDS011;4727;51.202;6.344;2022-08-30T01:02:10;11.20;;;4.67;;
9374;SDS011;4727;51.202;6.344;2022-08-30T01:04:37;5.13;;;4.23;;
9374;SDS011;4727;51.202;6.344;2022-08-30T01:07:05;4.43;;;4.10;;
9374;SDS011;4727;51.202;6.344;2022-08-30T01:09:32;5.63;;;4.33;;
9374;SDS011;4727;51.202;6.344;2022-08-30T01:11:58;6.63;;;4.47;;
9374;SDS011;4727;51.202;6.344;2022-08-30T01:14:25;5.37;;;3.83;;
9374;SDS011;4727;51.202;6.344;2022-08-30T01:16:51;7.37;;;4.00;;
9374;SDS011;4727;51.202;6.344;2022-08-30T01:19:23;5.53;;;3.90;;
9374;SDS011;4727;51.202;6.344;2022-08-30T01:24:59;5.17;;;4.20;;
9374;SDS011;4727;51.202;6.344;2022-08-30T01:27:25;9.03;;;4.80;;
9374;SDS011;4727;51.202;6.344;2022-08-30T01:29:53;5.00;;;4.50;;
9374;SDS011;4727;51.202;6.344;2022-08-30T01:32:25;5.37;;;4.07;;
9374;SDS011;4727;51.202;6.344;2022-08-30T01:34:55;6.07;;;4.23;;
9374;SDS011;4727;51.202;6.344;2022-08-30T01:37:23;5.00;;;4.50;;
9374;SDS011;4727;51.202;6.344;2022-08-30T01:39:55;6.20;;;4.63;;
9374;SDS011;4727;51.202;6.344;2022-08-30T01:42:21;5.97;;;4.67;;
9374;SDS011;4727;51.202;6.344;2022-08-30T01:44:47;5.77;;;4.80;;
9374;SDS011;4727;51.202;6.344;2022-08-30T01:47:13;5.93;;;4.40;;
9374;SDS011;4727;51.202;6.344;2022-08-30T01:49:39;6.17;;;4.40;;
9374;SDS011;4727;51.202;6.344;2022-08-30T01:52:06;6.10;;;4.40;;
9374;SDS011;4727;51.202;6.344;2022-08-30T01:54:33;6.63;;;4.73;;
9374;SDS011;4727;51.202;6.344;2022-08-30T01:57:00;5.03;;;4.17;;
9374;SDS011;4727;51.202;6.344;2022-08-30T01:59:26;8.53;;;5.40;;
9374;SDS011;4727;51.202;6.344;2022-08-30T02:01:52;6.57;;;4.47;;
9374;SDS011;4727;51.202;6.344;2022-08-30T02:04:18;6.63;;;4.97;;
9374;SDS011;4727;51.202;6.344;2022-08-30T02:06:43;6.77;;;4.43;;
9374;SDS011;4727;51.202;6.344;2022-08-30T02:09:10;8.73;;;4.97;;
9374;SDS011;4727;51.202;6.344;2022-08-30T02:11:36;6.93;;;4.90;;
9374;SDS011;4727;51.202;6.344;2022-08-30T02:14:02;6.03;;;4.60;;
9374;SDS011;4727;51.202;6.344;2022-08-30T02:16:29;7.23;;;4.70;;
9374;SDS011;4727;51.202;6.344;2022-08-30T02:18:55;5.67;;;4.30;;
9374;SDS011;4727;51.202;6.344;2022-08-30T02:21:21;6.60;;;5.13;;
9374;SDS011;4727;51.202;6.344;2022-08-30T02:23:48;5.27;;;4.80;;
9374;SDS011;4727;51.202;6.344;2022-08-30T02:26:15;5.83;;;5.00;;
9374;SDS011;4727;51.202;6.344;2022-08-30T02:28:42;6.80;;;5.00;;
9374;SDS011;4727;51.202;6.344;2022-08-30T02:31:09;6.50;;;5.10;;
9374;SDS011;4727;51.202;6.344;2022-08-30T02:33:35;5.63;;;5.10;;
9374;SDS011;4727;51.202;6.344;2022-08-30T02:36:02;6.47;;;5.30;;
9374;SDS011;4727;51.202;6.344;2022-08-30T02:38:28;6.73;;;5.07;;
9374;SDS011;4727;51.202;6.344;2022-08-30T02:40:54;6.40;;;5.17;;
9374;SDS011;4727;51.202;6.344;2022-08-30T02:43:19;6.17;;;5.50;;
9374;SDS011;4727;51.202;6.344;2022-08-30T02:45:45;7.03;;;4.70;;
9374;SDS011;4727;51.202;6.344;2022-08-30T02:48:11;6.57;;;5.23;;
9374;SDS011;4727;51.202;6.344;2022-08-30T02:50:44;6.80;;;4.83;;
9374;SDS011;4727;51.202;6.344;2022-08-30T02:53:11;5.57;;;4.93;;
9374;SDS011;4727;51.202;6.344;2022-08-30T02:55:37;7.77;;;4.93;;
9374;SDS011;4727;51.202;6.344;2022-08-30T02:58:03;5.70;;;5.27;;
9374;SDS011;4727;51.202;6.344;2022-08-30T03:00:29;5.40;;;5.00;;
9374;SDS011;4727;51.202;6.344;2022-08-30T03:02:55;5.97;;;4.83;;
9374;SDS011;4727;51.202;6.344;2022-08-30T03:05:21;8.07;;;5.80;;
9374;SDS011;4727;51.202;6.344;2022-08-30T03:07:47;6.10;;;4.87;;
9374;SDS011;4727;51.202;6.344;2022-08-30T03:10:13;7.73;;;5.20;;
9374;SDS011;4727;51.202;6.344;2022-08-30T03:12:39;6.47;;;5.13;;
9374;SDS011;4727;51.202;6.344;2022-08-30T03:15:07;5.77;;;5.13;;
9374;SDS011;4727;51.202;6.344;2022-08-30T03:17:34;6.40;;;5.80;;
9374;SDS011;4727;51.202;6.344;2022-08-30T03:19:59;7.07;;;5.03;;
9374;SDS011;4727;51.202;6.344;2022-08-30T03:22:26;8.53;;;5.53;;
9374;SDS011;4727;51.202;6.344;2022-08-30T03:24:52;6.27;;;5.33;;
9374;SDS011;4727;51.202;6.344;2022-08-30T03:27:17;7.13;;;5.00;;
9374;SDS011;4727;51.202;6.344;2022-08-30T03:29:43;6.87;;;5.33;;
9374;SDS011;4727;51.202;6.344;2022-08-30T03:32:08;5.73;;;5.13;;
9374;SDS011;4727;51.202;6.344;2022-08-30T03:34:34;8.27;;;5.60;;
9374;SDS011;4727;51.202;6.344;2022-08-30T03:36:59;7.77;;;5.17;;
9374;SDS011;4727;51.202;6.344;2022-08-30T03:39:25;7.27;;;5.27;;
9374;SDS011;4727;51.202;6.344;2022-08-30T03:41:52;6.17;;;5.43;;
9374;SDS011;4727;51.202;6.344;2022-08-30T03:44:18;6.00;;;5.40;;
9374;SDS011;4727;51.202;6.344;2022-08-30T03:46:44;6.87;;;5.63;;
9374;SDS011;4727;51.202;6.344;2022-08-30T03:49:10;6.50;;;5.30;;
9374;SDS011;4727;51.202;6.344;2022-08-30T03:51:36;7.13;;;5.60;;
9374;SDS011;4727;51.202;6.344;2022-08-30T03:54:02;6.67;;;5.40;;
9374;SDS011;4727;51.202;6.344;2022-08-30T03:56:28;6.40;;;5.10;;
9374;SDS011;4727;51.202;6.344;2022-08-30T03:58:53;6.63;;;5.47;;
9374;SDS011;4727;51.202;6.344;2022-08-30T04:01:19;6.77;;;5.40;;
9374;SDS011;4727;51.202;6.344;2022-08-30T04:03:44;6.73;;;5.43;;
9374;SDS011;4727;51.202;6.344;2022-08-30T04:06:10;5.60;;;5.10;;
9374;SDS011;4727;51.202;6.344;2022-08-30T04:08:36;5.60;;;5.10;;
9374;SDS011;4727;51.202;6.344;2022-08-30T04:11:02;6.50;;;5.00;;
9374;SDS011;4727;51.202;6.344;2022-08-30T04:13:28;5.40;;;4.90;;
9374;SDS011;4727;51.202;6.344;2022-08-30T04:15:54;6.07;;;5.27;;
9374;SDS011;4727;51.202;6.344;2022-08-30T04:18:19;7.77;;;5.80;;
9374;SDS011;4727;51.202;6.344;2022-08-30T04:20:45;7.60;;;5.20;;
9374;SDS011;4727;51.202;6.344;2022-08-30T04:23:11;6.00;;;5.27;;
9374;SDS011;4727;51.202;6.344;2022-08-30T04:25:37;6.50;;;5.90;;
9374;SDS011;4727;51.202;6.344;2022-08-30T04:28:04;7.87;;;5.57;;
9374;SDS011;4727;51.202;6.344;2022-08-30T04:30:31;6.63;;;5.60;;
9374;SDS011;4727;51.202;6.344;2022-08-30T04:32:57;6.43;;;5.80;;
9374;SDS011;4727;51.202;6.344;2022-08-30T04:35:22;8.93;;;5.43;;
9374;SDS011;4727;51.202;6.344;2022-08-30T04:37:48;5.40;;;5.00;;
9374;SDS011;4727;51.202;6.344;2022-08-30T04:40:14;6.40;;;5.90;;
9374;SDS011;4727;51.202;6.344;2022-08-30T04:42:41;7.80;;;6.13;;
9374;SDS011;4727;51.202;6.344;2022-08-30T04:45:13;5.57;;;5.10;;
9374;SDS011;4727;51.202;6.344;2022-08-30T04:47:41;6.93;;;5.57;;
9374;SDS011;4727;51.202;6.344;2022-08-30T04:50:08;6.07;;;5.47;;
9374;SDS011;4727;51.202;6.344;2022-08-30T04:52:35;6.20;;;5.60;;
9374;SDS011;4727;51.202;6.344;2022-08-30T04:55:01;6.30;;;5.70;;
9374;SDS011;4727;51.202;6.344;2022-08-30T04:57:27;6.17;;;5.57;;
9374;SDS011;4727;51.202;6.344;2022-08-30T04:59:53;6.13;;;5.37;;
9374;SDS011;4727;51.202;6.344;2022-08-30T05:02:19;6.87;;;5.60;;
9374;SDS011;4727;51.202;6.344;2022-08-30T05:04:48;5.77;;;5.27;;
9374;SDS011;4727;51.202;6.344;2022-08-30T05:07:35;6.27;;;5.40;;
9374;SDS011;4727;51.202;6.344;2022-08-30T05:10:07;7.13;;;5.80;;
9374;SDS011;4727;51.202;6.344;2022-08-30T05:12:32;6.30;;;5.70;;
9374;SDS011;4727;51.202;6.344;2022-08-30T05:14:58;6.40;;;5.73;;
9374;SDS011;4727;51.202;6.344;2022-08-30T05:17:24;7.17;;;6.27;;
9374;SDS011;4727;51.202;6.344;2022-08-30T05:19:49;6.30;;;5.80;;
9374;SDS011;4727;51.202;6.344;2022-08-30T05:22:15;6.33;;;5.73;;
9374;SDS011;4727;51.202;6.344;2022-08-30T05:24:47;10.30;;;6.27;;
9374;SDS011;4727;51.202;6.344;2022-08-30T05:27:13;7.17;;;6.10;;
9374;SDS011;4727;51.202;6.344;2022-08-30T05:29:39;6.10;;;5.50;;
9374;SDS011;4727;51.202;6.344;2022-08-30T05:32:05;9.03;;;5.90;;
9374;SDS011;4727;51.202;6.344;2022-08-30T05:34:32;6.77;;;5.93;;
9374;SDS011;4727;51.202;6.344;2022-08-30T05:36:58;9.43;;;5.93;;
9374;SDS011;4727;51.202;6.344;2022-08-30T05:39:24;8.43;;;5.97;;
9374;SDS011;4727;51.202;6.344;2022-08-30T05:41:50;7.73;;;6.30;;
9374;SDS011;4727;51.202;6.344;2022-08-30T05:44:23;10.37;;;6.40;;
9374;SDS011;4727;51.202;6.344;2022-08-30T05:46:49;9.67;;;6.40;;
9374;SDS011;4727;51.202;6.344;2022-08-30T05:49:16;9.57;;;7.07;;
9374;SDS011;4727;51.202;6.344;2022-08-30T05:51:42;11.00;;;9.43;;
9374;SDS011;4727;51.202;6.344;2022-08-30T05:54:08;7.23;;;6.07;;
9374;SDS011;4727;51.202;6.344;2022-08-30T05:56:35;7.67;;;6.30;;
9374;SDS011;4727;51.202;6.344;2022-08-30T05:59:03;8.80;;;7.03;;
9374;SDS011;4727;51.202;6.344;2022-08-30T06:01:33;8.93;;;6.77;;
9374;SDS011;4727;51.202;6.344;2022-08-30T06:04:02;8.43;;;6.97;;
9374;SDS011;4727;51.202;6.344;2022-08-30T06:06:29;9.03;;;6.97;;
9374;SDS011;4727;51.202;6.344;2022-08-30T06:09:02;9.33;;;7.43;;
9374;SDS011;4727;51.202;6.344;2022-08-30T06:11:29;8.47;;;7.00;;
9374;SDS011;4727;51.202;6.344;2022-08-30T06:14:04;8.17;;;6.70;;
9374;SDS011;4727;51.202;6.344;2022-08-30T06:16:37;13.53;;;7.40;;
9374;SDS011;4727;51.202;6.344;2022-08-30T06:19:17;9.63;;;6.97;;
9374;SDS011;4727;51.202;6.344;2022-08-30T06:21:50;9.43;;;7.03;;
9374;SDS011;4727;51.202;6.344;2022-08-30T06:24:22;9.53;;;6.80;;
9374;SDS011;4727;51.202;6.344;2022-08-30T06:26:47;10.00;;;6.80;;
9374;SDS011;4727;51.202;6.344;2022-08-30T06:29:14;8.07;;;6.67;;
9374;SDS011;4727;51.202;6.344;2022-08-30T06:31:42;9.03;;;7.13;;
9374;SDS011;4727;51.202;6.344;2022-08-30T06:34:14;7.70;;;6.87;;
9374;SDS011;4727;51.202;6.344;2022-08-30T06:36:43;7.80;;;6.97;;
9374;SDS011;4727;51.202;6.344;2022-08-30T06:39:09;8.00;;;6.40;;
9374;SDS011;4727;51.202;6.344;2022-08-30T06:41:35;8.10;;;6.80;;
9374;SDS011;4727;51.202;6.344;2022-08-30T06:44:05;8.73;;;6.60;;
9374;SDS011;4727;51.202;6.344;2022-08-30T06:46:36;10.07;;;6.87;;
9374;SDS011;4727;51.202;6.344;2022-08-30T06:49:05;8.63;;;6.57;;
9374;SDS011;4727;51.202;6.344;2022-08-30T06:51:34;10.73;;;7.10;;
9374;SDS011;4727;51.202;6.344;2022-08-30T06:54:02;9.67;;;7.07;;
9374;SDS011;4727;51.202;6.344;2022-08-30T06:56:29;13.20;;;7.00;;
9374;SDS011;4727;51.202;6.344;2022-08-30T06:58:54;7.87;;;6.23;;
9374;SDS011;4727;51.202;6.344;2022-08-30T07:01:21;11.33;;;5.90;;
9374;SDS011;4727;51.202;6.344;2022-08-30T07:03:50;8.90;;;5.90;;
9374;SDS011;4727;51.202;6.344;2022-08-30T07:06:16;7.77;;;5.73;;
9374;SDS011;4727;51.202;6.344;2022-08-30T07:08:43;7.43;;;5.87;;
9374;SDS011;4727;51.202;6.344;2022-08-30T07:11:12;7.67;;;5.80;;
9374;SDS011;4727;51.202;6.344;2022-08-30T07:13:48;7.10;;;5.70;;
9374;SDS011;4727;51.202;6.344;2022-08-30T07:16:14;8.37;;;5.50;;
9374;SDS011;4727;51.202;6.344;2022-08-30T07:18:39;7.73;;;5.30;;
9374;SDS011;4727;51.202;6.344;2022-08-30T07:21:15;6.87;;;5.17;;
9374;SDS011;4727;51.202;6.344;2022-08-30T07:23:45;7.33;;;5.20;;
9374;SDS011;4727;51.202;6.344;2022-08-30T07:26:16;6.20;;;5.10;;
9374;SDS011;4727;51.202;6.344;2022-08-30T07:28:45;6.13;;;5.60;;
9374;SDS011;4727;51.202;6.344;2022-08-30T07:31:14;8.20;;;5.63;;
9374;SDS011;4727;51.202;6.344;2022-08-30T07:33:41;7.53;;;5.97;;
9374;SDS011;4727;51.202;6.344;2022-08-30T07:36:11;8.67;;;5.60;;
9374;SDS011;4727;51.202;6.344;2022-08-30T07:38:38;8.10;;;5.77;;
9374;SDS011;4727;51.202;6.344;2022-08-30T07:41:04;7.43;;;5.27;;
9374;SDS011;4727;51.202;6.344;2022-08-30T07:43:30;5.70;;;5.20;;
9374;SDS011;4727;51.202;6.344;2022-08-30T07:46:01;5.70;;;5.20;;
9374;SDS011;4727;51.202;6.344;2022-08-30T07:48:31;7.93;;;6.00;;
9374;SDS011;4727;51.202;6.344;2022-08-30T07:51:03;7.10;;;5.07;;
9374;SDS011;4727;51.202;6.344;2022-08-30T07:53:58;6.23;;;5.60;;
9374;SDS011;4727;51.202;6.344;2022-08-30T07:56:24;6.27;;;5.40;;
9374;SDS011;4727;51.202;6.344;2022-08-30T07:58:50;6.13;;;5.57;;
9374;SDS011;4727;51.202;6.344;2022-08-30T08:01:16;5.97;;;5.37;;
9374;SDS011;4727;51.202;6.344;2022-08-30T08:03:43;7.53;;;5.87;;
9374;SDS011;4727;51.202;6.344;2022-08-30T08:06:10;6.90;;;5.27;;
9374;SDS011;4727;51.202;6.344;2022-08-30T08:08:38;7.53;;;5.03;;
9374;SDS011;4727;51.202;6.344;2022-08-30T08:11:05;8.03;;;5.40;;
9374;SDS011;4727;51.202;6.344;2022-08-30T08:13:32;5.93;;;5.30;;
9374;SDS011;4727;51.202;6.344;2022-08-30T08:15:58;6.17;;;5.67;;
9374;SDS011;4727;51.202;6.344;2022-08-30T08:18:24;6.03;;;5.07;;
9374;SDS011;4727;51.202;6.344;2022-08-30T08:20:50;6.17;;;5.30;;
9374;SDS011;4727;51.202;6.344;2022-08-30T08:23:15;5.77;;;5.23;;
9374;SDS011;4727;51.202;6.344;2022-08-30T08:25:41;5.63;;;4.97;;
9374;SDS011;4727;51.202;6.344;2022-08-30T08:28:07;5.60;;;5.20;;
9374;SDS011;4727;51.202;6.344;2022-08-30T08:30:33;6.03;;;5.33;;
9374;SDS011;4727;51.202;6.344;2022-08-30T08:33:01;8.53;;;5.43;;
9374;SDS011;4727;51.202;6.344;2022-08-30T08:35:28;8.03;;;5.37;;
9374;SDS011;4727;51.202;6.344;2022-08-30T08:37:53;9.67;;;5.57;;
9374;SDS011;4727;51.202;6.344;2022-08-30T08:40:19;6.90;;;4.73;;
9374;SDS011;4727;51.202;6.344;2022-08-30T08:42:55;12.97;;;5.60;;
9374;SDS011;4727;51.202;6.344;2022-08-30T08:45:28;5.47;;;4.95;;
9374;SDS011;4727;51.202;6.344;2022-08-30T08:51:07;7.70;;;5.00;;
9374;SDS011;4727;51.202;6.344;2022-08-30T08:54:15;11.57;;;4.77;;
9374;SDS011;4727;51.202;6.344;2022-08-30T08:56:41;6.83;;;4.73;;
9374;SDS011;4727;51.202;6.344;2022-08-30T08:59:08;9.70;;;5.20;;
9374;SDS011;4727;51.202;6.344;2022-08-30T09:01:35;5.15;;;4.70;;
9374;SDS011;4727;51.202;6.344;2022-08-30T09:04:04;5.90;;;4.40;;
9374;SDS011;4727;51.202;6.344;2022-08-30T09:06:48;9.73;;;5.00;;
9374;SDS011;4727;51.202;6.344;2022-08-30T09:09:35;7.95;;;5.00;;
9374;SDS011;4727;51.202;6.344;2022-08-30T09:12:03;7.90;;;5.07;;
9374;SDS011;4727;51.202;6.344;2022-08-30T09:14:32;26.70;;;6.10;;
9374;SDS011;4727;51.202;6.344;2022-08-30T09:17:03;6.88;;;4.38;;
9374;SDS011;4727;51.202;6.344;2022-08-30T09:22:01;9.98;;;5.13;;
9374;SDS011;4727;51.202;6.344;2022-08-30T09:24:35;6.88;;;5.22;;
9374;SDS011;4727;51.202;6.344;2022-08-30T09:27:12;6.97;;;4.75;;
9374;SDS011;4727;51.202;6.344;2022-08-30T09:29:51;7.50;;;5.13;;
9374;SDS011;4727;51.202;6.344;2022-08-30T09:32:22;8.30;;;5.38;;
9374;SDS011;4727;51.202;6.344;2022-08-30T09:34:50;6.45;;;5.18;;
9374;SDS011;4727;51.202;6.344;2022-08-30T09:37:32;5.80;;;4.75;;
9374;SDS011;4727;51.202;6.344;2022-08-30T09:40:12;6.25;;;4.80;;
9374;SDS011;4727;51.202;6.344;2022-08-30T09:42:40;5.53;;;5.03;;
9374;SDS011;4727;51.202;6.344;2022-08-30T09:45:10;12.57;;;5.55;;
9374;SDS011;4727;51.202;6.344;2022-08-30T09:47:44;5.20;;;4.38;;
9374;SDS011;4727;51.202;6.344;2022-08-30T09:50:11;6.28;;;4.53;;
9374;SDS011;4727;51.202;6.344;2022-08-30T09:55:31;5.50;;;4.00;;
9374;SDS011;4727;51.202;6.344;2022-08-30T10:00:45;15.18;;;5.15;;
9374;SDS011;4727;51.202;6.344;2022-08-30T10:13:59;7.72;;;4.10;;
9374;SDS011;4727;51.202;6.344;2022-08-30T10:24:41;9.15;;;3.67;;
9374;SDS011;4727;51.202;6.344;2022-08-30T10:27:15;5.45;;;3.50;;
9374;SDS011;4727;51.202;6.344;2022-08-30T10:29:47;20.60;;;5.63;;
9374;SDS011;4727;51.202;6.344;2022-08-30T10:35:12;10.00;;;4.05;;
9374;SDS011;4727;51.202;6.344;2022-08-30T10:37:50;6.32;;;4.10;;
9374;SDS011;4727;51.202;6.344;2022-08-30T10:40:17;4.45;;;3.50;;
9374;SDS011;4727;51.202;6.344;2022-08-30T10:43:12;4.00;;;3.70;;
9374;SDS011;4727;51.202;6.344;2022-08-30T10:45:44;4.68;;;3.75;;
9374;SDS011;4727;51.202;6.344;2022-08-30T10:48:16;3.65;;;3.35;;
9374;SDS011;4727;51.202;6.344;2022-08-30T10:50:51;12.45;;;4.10;;
9374;SDS011;4727;51.202;6.344;2022-08-30T10:53:23;4.70;;;3.28;;
9374;SDS011;4727;51.202;6.344;2022-08-30T10:56:02;4.18;;;3.78;;
9374;SDS011;4727;51.202;6.344;2022-08-30T10:58:35;4.88;;;3.80;;
9374;SDS011;4727;51.202;6.344;2022-08-30T11:03:54;4.65;;;3.58;;
9374;SDS011;4727;51.202;6.344;2022-08-30T11:09:19;10.13;;;4.35;;
9374;SDS011;4727;51.202;6.344;2022-08-30T11:14:45;4.25;;;3.35;;
9374;SDS011;4727;51.202;6.344;2022-08-30T11:17:25;3.30;;;3.00;;
9374;SDS011;4727;51.202;6.344;2022-08-30T11:20:03;4.38;;;3.38;;
9374;SDS011;4727;51.202;6.344;2022-08-30T11:22:31;3.40;;;3.10;;
9374;SDS011;4727;51.202;6.344;2022-08-30T11:25:09;8.55;;;3.55;;
9374;SDS011;4727;51.202;6.344;2022-08-30T11:27:51;7.55;;;3.33;;
9374;SDS011;4727;51.202;6.344;2022-08-30T11:32:56;3.75;;;3.17;;
9374;SDS011;4727;51.202;6.344;2022-08-30T11:36:01;4.18;;;3.15;;
9374;SDS011;4727;51.202;6.344;2022-08-30T11:46:14;4.28;;;3.17;;
9374;SDS011;4727;51.202;6.344;2022-08-30T11:48:46;5.15;;;3.40;;
9374;SDS011;4727;51.202;6.344;2022-08-30T11:56:32;5.03;;;3.22;;
9374;SDS011;4727;51.202;6.344;2022-08-30T12:01:54;5.25;;;4.13;;
9374;SDS011;4727;51.202;6.344;2022-08-30T12:06:50;3.63;;;3.22;;
9374;SDS011;4727;51.202;6.344;2022-08-30T12:17:53;5.80;;;3.78;;
9374;SDS011;4727;51.202;6.344;2022-08-30T12:20:40;3.28;;;3.08;;
9374;SDS011;4727;51.202;6.344;2022-08-30T12:25:43;3.42;;;3.13;;
9374;SDS011;4727;51.202;6.344;2022-08-30T12:30:37;3.55;;;3.25;;
9374;SDS011;4727;51.202;6.344;2022-08-30T12:33:04;4.32;;;3.20;;
9374;SDS011;4727;51.202;6.344;2022-08-30T12:35:30;5.85;;;3.00;;
9374;SDS011;4727;51.202;6.344;2022-08-30T12:38:03;3.58;;;3.10;;
9374;SDS011;4727;51.202;6.344;2022-08-30T12:40:31;3.33;;;2.90;;
9374;SDS011;4727;51.202;6.344;2022-08-30T12:42:59;4.25;;;3.30;;
9374;SDS011;4727;51.202;6.344;2022-08-30T12:45:46;3.88;;;3.10;;
9374;SDS011;4727;51.202;6.344;2022-08-30T12:48:14;6.07;;;3.78;;
9374;SDS011;4727;51.202;6.344;2022-08-30T12:50:44;6.55;;;3.22;;
9374;SDS011;4727;51.202;6.344;2022-08-30T12:53:26;3.30;;;3.00;;
9374;SDS011;4727;51.202;6.344;2022-08-30T12:55:59;4.95;;;3.38;;
9374;SDS011;4727;51.202;6.344;2022-08-30T13:06:46;4.55;;;3.42;;
9374;SDS011;4727;51.202;6.344;2022-08-30T13:09:34;3.70;;;3.25;;
9374;SDS011;4727;51.202;6.344;2022-08-30T13:12:06;3.25;;;2.95;;
9374;SDS011;4727;51.202;6.344;2022-08-30T13:14:42;4.18;;;3.40;;
9374;SDS011;4727;51.202;6.344;2022-08-30T13:19:44;3.92;;;3.13;;
9374;SDS011;4727;51.202;6.344;2022-08-30T13:22:25;5.90;;;4.05;;
9374;SDS011;4727;51.202;6.344;2022-08-30T13:24:51;4.18;;;3.30;;
9374;SDS011;4727;51.202;6.344;2022-08-30T13:27:17;4.07;;;3.67;;
9374;SDS011;4727;51.202;6.344;2022-08-30T13:29:43;6.28;;;3.40;;
9374;SDS011;4727;51.202;6.344;2022-08-30T13:32:09;4.25;;;3.70;;
9374;SDS011;4727;51.202;6.344;2022-08-30T13:34:34;5.60;;;3.50;;
9374;SDS011;4727;51.202;6.344;2022-08-30T13:37:00;3.28;;;2.97;;
9374;SDS011;4727;51.202;6.344;2022-08-30T13:39:27;4.03;;;3.25;;
9374;SDS011;4727;51.202;6.344;2022-08-30T13:41:53;3.78;;;3.47;;
9374;SDS011;4727;51.202;6.344;2022-08-30T13:44:19;6.18;;;3.22;;
9374;SDS011;4727;51.202;6.344;2022-08-30T13:46:50;3.40;;;3.08;;
9374;SDS011;4727;51.202;6.344;2022-08-30T13:49:19;5.57;;;3.50;;
9374;SDS011;4727;51.202;6.344;2022-08-30T13:51:50;3.63;;;3.20;;
9374;SDS011;4727;51.202;6.344;2022-08-30T13:54:18;3.58;;;3.28;;
9374;SDS011;4727;51.202;6.344;2022-08-30T13:56:46;2.95;;;2.75;;
9374;SDS011;4727;51.202;6.344;2022-08-30T13:59:13;5.55;;;3.30;;
9374;SDS011;4727;51.202;6.344;2022-08-30T14:01:39;4.22;;;3.15;;
9374;SDS011;4727;51.202;6.344;2022-08-30T14:04:04;4.72;;;3.20;;
9374;SDS011;4727;51.202;6.344;2022-08-30T14:06:30;3.55;;;3.03;;
9374;SDS011;4727;51.202;6.344;2022-08-30T14:08:56;3.65;;;3.20;;
9374;SDS011;4727;51.202;6.344;2022-08-30T14:11:21;3.42;;;3.10;;
9374;SDS011;4727;51.202;6.344;2022-08-30T14:13:47;5.05;;;3.72;;
9374;SDS011;4727;51.202;6.344;2022-08-30T14:16:13;4.20;;;3.35;;
9374;SDS011;4727;51.202;6.344;2022-08-30T14:18:39;3.67;;;3.30;;
9374;SDS011;4727;51.202;6.344;2022-08-30T14:21:05;3.78;;;3.20;;
9374;SDS011;4727;51.202;6.344;2022-08-30T14:23:30;4.88;;;3.50;;
9374;SDS011;4727;51.202;6.344;2022-08-30T14:25:56;3.88;;;3.35;;
9374;SDS011;4727;51.202;6.344;2022-08-30T14:28:24;6.93;;;3.42;;
9374;SDS011;4727;51.202;6.344;2022-08-30T14:30:54;4.22;;;3.60;;
9374;SDS011;4727;51.202;6.344;2022-08-30T14:33:22;5.88;;;3.65;;
9374;SDS011;4727;51.202;6.344;2022-08-30T14:35:48;3.90;;;3.50;;
9374;SDS011;4727;51.202;6.344;2022-08-30T14:38:14;5.95;;;4.43;;
9374;SDS011;4727;51.202;6.344;2022-08-30T14:40:40;3.95;;;3.55;;
9374;SDS011;4727;51.202;6.344;2022-08-30T14:43:05;5.00;;;3.65;;
9374;SDS011;4727;51.202;6.344;2022-08-30T14:45:31;5.78;;;3.65;;
9374;SDS011;4727;51.202;6.344;2022-08-30T14:47:56;4.43;;;3.60;;
9374;SDS011;4727;51.202;6.344;2022-08-30T14:50:22;4.72;;;3.50;;
9374;SDS011;4727;51.202;6.344;2022-08-30T14:52:48;4.57;;;3.42;;
9374;SDS011;4727;51.202;6.344;2022-08-30T14:55:14;6.57;;;3.70;;
9374;SDS011;4727;51.202;6.344;2022-08-30T14:57:40;4.20;;;3.38;;
9374;SDS011;4727;51.202;6.344;2022-08-30T15:00:06;3.67;;;3.38;;
9374;SDS011;4727;51.202;6.344;2022-08-30T15:02:34;4.75;;;3.55;;
9374;SDS011;4727;51.202;6.344;2022-08-30T15:05:00;5.57;;;3.80;;
9374;SDS011;4727;51.202;6.344;2022-08-30T15:07:25;5.50;;;3.50;;
9374;SDS011;4727;51.202;6.344;2022-08-30T15:09:51;3.55;;;3.30;;
9374;SDS011;4727;51.202;6.344;2022-08-30T15:12:17;5.65;;;4.13;;
9374;SDS011;4727;51.202;6.344;2022-08-30T15:14:42;4.00;;;3.65;;
9374;SDS011;4727;51.202;6.344;2022-08-30T15:17:08;4.65;;;3.70;;
9374;SDS011;4727;51.202;6.344;2022-08-30T15:19:34;5.32;;;3.85;;
9374;SDS011;4727;51.202;6.344;2022-08-30T15:22:01;5.05;;;3.67;;
9374;SDS011;4727;51.202;6.344;2022-08-30T15:24:29;4.40;;;3.42;;
9374;SDS011;4727;51.202;6.344;2022-08-30T15:26:56;4.25;;;3.85;;
9374;SDS011;4727;51.202;6.344;2022-08-30T15:29:23;6.25;;;3.78;;
9374;SDS011;4727;51.202;6.344;2022-08-30T15:31:49;3.33;;;3.13;;
9374;SDS011;4727;51.202;6.344;2022-08-30T15:34:16;4.32;;;3.72;;
9374;SDS011;4727;51.202;6.344;2022-08-30T15:36:44;4.97;;;3.17;;
9374;SDS011;4727;51.202;6.344;2022-08-30T15:39:10;3.88;;;3.17;;
9374;SDS011;4727;51.202;6.344;2022-08-30T15:41:37;3.95;;;3.35;;
9374;SDS011;4727;51.202;6.344;2022-08-30T15:44:04;4.03;;;3.20;;
9374;SDS011;4727;51.202;6.344;2022-08-30T15:46:31;3.58;;;3.28;;
9374;SDS011;4727;51.202;6.344;2022-08-30T15:49:00;3.70;;;3.35;;
9374;SDS011;4727;51.202;6.344;2022-08-30T15:51:31;5.63;;;3.40;;
9374;SDS011;4727;51.202;6.344;2022-08-30T15:53:58;3.72;;;3.42;;
9374;SDS011;4727;51.202;6.344;2022-08-30T15:56:23;5.88;;;3.45;;
9374;SDS011;4727;51.202;6.344;2022-08-30T15:58:49;3.85;;;3.20;;
9374;SDS011;4727;51.202;6.344;2022-08-30T16:01:16;3.50;;;3.10;;
9374;SDS011;4727;51.202;6.344;2022-08-30T16:03:41;4.47;;;3.35;;
9374;SDS011;4727;51.202;6.344;2022-08-30T16:06:19;3.53;;;3.17;;
9374;SDS011;4727;51.202;6.344;2022-08-30T16:08:47;3.60;;;3.25;;
9374;SDS011;4727;51.202;6.344;2022-08-30T16:11:14;4.97;;;3.42;;
9374;SDS011;4727;51.202;6.344;2022-08-30T16:13:42;4.10;;;3.03;;
9374;SDS011;4727;51.202;6.344;2022-08-30T16:16:09;3.30;;;3.00;;
9374;SDS011;4727;51.202;6.344;2022-08-30T16:18:35;3.30;;;3.10;;
9374;SDS011;4727;51.202;6.344;2022-08-30T16:21:03;4.78;;;3.05;;
9374;SDS011;4727;51.202;6.344;2022-08-30T16:23:35;4.22;;;3.33;;
9374;SDS011;4727;51.202;6.344;2022-08-30T16:26:02;5.35;;;3.35;;
9374;SDS011;4727;51.202;6.344;2022-08-30T16:28:28;3.50;;;3.20;;
9374;SDS011;4727;51.202;6.344;2022-08-30T16:30:54;4.72;;;3.47;;
9374;SDS011;4727;51.202;6.344;2022-08-30T16:33:20;3.33;;;3.03;;
9374;SDS011;4727;51.202;6.344;2022-08-30T16:35:48;3.60;;;3.30;;
9374;SDS011;4727;51.202;6.344;2022-08-30T16:38:18;4.75;;;3.42;;
9374;SDS011;4727;51.202;6.344;2022-08-30T16:40:44;4.47;;;3.40;;
9374;SDS011;4727;51.202;6.344;2022-08-30T16:43:10;4.07;;;3.35;;
9374;SDS011;4727;51.202;6.344;2022-08-30T16:45:36;3.20;;;2.90;;
9374;SDS011;4727;51.202;6.344;2022-08-30T16:48:03;3.60;;;3.30;;
9374;SDS011;4727;51.202;6.344;2022-08-30T16:50:28;3.20;;;2.72;;
9374;SDS011;4727;51.202;6.344;2022-08-30T16:52:54;3.40;;;3.10;;